sensor_id;sensor_type;location;lat;lon;timestamp;temperature;humidity
23010;DHT22;11671;49.990;8.028;2023-12-20T00:01:39;6.80;99.90
23010;DHT22;11671;49.990;8.028;2023-12-20T00:04:05;6.80;99.90
23010;DHT22;11671;49.990;8.028;2023-12-20T00:06:31;6.80;99.90
23010;DHT22;11671;49.990;8.028;2023-12-20T00:08:56;6.80;99.90
23010;DHT22;11671;49.990;8.028;2023-12-20T00:11:23;6.70;99.90
23010;DHT22;11671;49.990;8.028;2023-12-20T00:13:48;6.70;99.90
23010;DHT22;11671;49.990;8.028;2023-12-20T00:16:14;6.70;99.90
23010;DHT22;11671;49.990;8.028;2023-12-20T00:18:40;6.70;99.90
23010;DHT22;11671;49.990;8.028;2023-12-20T00:21:05;6.70;99.90
23010;DHT22;11671;49.990;8.028;2023-12-20T00:23:31;6.80;99.90
23010;DHT22;11671;49.990;8.028;2023-12-20T00:25:56;6.70;99.90
23010;DHT22;11671;49.990;8.028;2023-12-20T00:28:22;6.80;99.90
23010;DHT22;11671;49.990;8.028;2023-12-20T00:30:47;6.80;99.90
23010;DHT22;11671;49.990;8.028;2023-12-20T00:33:13;6.80;99.90
23010;DHT22;11671;49.990;8.028;2023-12-20T00:35:38;6.80;99.90
23010;DHT22;11671;49.990;8.028;2023-12-20T00:38:04;6.80;99.90
23010;DHT22;11671;49.990;8.028;2023-12-20T00:40:30;6.80;99.90
23010;DHT22;11671;49.990;8.028;2023-12-20T00:42:56;6.80;99.90
23010;DHT22;11671;49.990;8.028;2023-12-20T00:45:21;6.80;99.90
23010;DHT22;11671;49.990;8.028;2023-12-20T00:47:46;6.80;99.90
23010;DHT22;11671;49.990;8.028;2023-12-20T00:50:12;6.80;99.90
23010;DHT22;11671;49.990;8.028;2023-12-20T00:52:38;6.80;99.90
23010;DHT22;11671;49.990;8.028;2023-12-20T00:55:03;6.80;99.90
23010;DHT22;11671;49.990;8.028;2023-12-20T00:57:29;6.70;99.90
23010;DHT22;11671;49.990;8.028;2023-12-20T00:59:54;6.80;99.90
23010;DHT22;11671;49.990;8.028;2023-12-20T01:02:20;6.80;99.90
23010;DHT22;11671;49.990;8.028;2023-12-20T01:04:45;6.80;99.90
23010;DHT22;11671;49.990;8.028;2023-12-20T01:07:11;6.80;99.90
23010;DHT22;11671;49.990;8.028;2023-12-20T01:09:36;6.80;99.90
23010;DHT22;11671;49.990;8.028;2023-12-20T01:12:02;6.80;99.90
23010;DHT22;11671;49.990;8.028;2023-12-20T01:14:27;6.70;99.90
23010;DHT22;11671;49.990;8.028;2023-12-20T01:16:53;6.80;99.90
23010;DHT22;11671;49.990;8.028;2023-12-20T01:19:18;6.80;99.90
23010;DHT22;11671;49.990;8.028;2023-12-20T01:21:44;6.80;99.90
23010;DHT22;11671;49.990;8.028;2023-12-20T01:24:09;6.80;99.90
23010;DHT22;11671;49.990;8.028;2023-12-20T01:26:35;6.80;99.90
23010;DHT22;11671;49.990;8.028;2023-12-20T01:29:00;6.70;99.90
23010;DHT22;11671;49.990;8.028;2023-12-20T01:31:26;6.70;99.90
23010;DHT22;11671;49.990;8.028;2023-12-20T01:33:52;6.70;99.90
23010;DHT22;11671;49.990;8.028;2023-12-20T01:36:18;6.70;99.90
23010;DHT22;11671;49.990;8.028;2023-12-20T01:38:43;6.60;99.90
23010;DHT22;11671;49.990;8.028;2023-12-20T01:41:09;6.70;99.90
23010;DHT22;11671;49.990;8.028;2023-12-20T01:43:34;6.70;99.90
23010;DHT22;11671;49.990;8.028;2023-12-20T01:46:00;6.70;99.90
23010;DHT22;11671;49.990;8.028;2023-12-20T01:48:25;6.70;99.90
23010;DHT22;11671;49.990;8.028;2023-12-20T01:50:53;6.70;99.90
23010;DHT22;11671;49.990;8.028;2023-12-20T01:53:19;6.70;99.90
23010;DHT22;11671;49.990;8.028;2023-12-20T01:55:45;6.60;99.90
23010;DHT22;11671;49.990;8.028;2023-12-20T01:58:12;6.60;99.90
23010;DHT22;11671;49.990;8.028;2023-12-20T02:00:38;6.60;99.90
23010;DHT22;11671;49.990;8.028;2023-12-20T02:03:04;6.60;99.90
23010;DHT22;11671;49.990;8.028;2023-12-20T02:05:30;6.60;99.90
23010;DHT22;11671;49.990;8.028;2023-12-20T02:07:56;6.60;99.90
23010;DHT22;11671;49.990;8.028;2023-12-20T02:10:21;6.60;99.90
23010;DHT22;11671;49.990;8.028;2023-12-20T02:12:47;6.60;99.90
23010;DHT22;11671;49.990;8.028;2023-12-20T02:15:13;6.60;99.90
23010;DHT22;11671;49.990;8.028;2023-12-20T02:17:38;6.60;99.90
23010;DHT22;11671;49.990;8.028;2023-12-20T02:20:05;6.60;99.90
23010;DHT22;11671;49.990;8.028;2023-12-20T02:22:31;6.60;99.90
23010;DHT22;11671;49.990;8.028;2023-12-20T02:24:56;6.60;99.90
23010;DHT22;11671;49.990;8.028;2023-12-20T02:27:22;6.50;99.90
23010;DHT22;11671;49.990;8.028;2023-12-20T02:29:48;6.50;99.90
23010;DHT22;11671;49.990;8.028;2023-12-20T02:32:14;6.50;99.90
23010;DHT22;11671;49.990;8.028;2023-12-20T02:34:40;6.50;99.90
23010;DHT22;11671;49.990;8.028;2023-12-20T02:37:06;6.50;99.90
23010;DHT22;11671;49.990;8.028;2023-12-20T02:39:31;6.50;99.90
23010;DHT22;11671;49.990;8.028;2023-12-20T02:41:58;6.50;99.90
23010;DHT22;11671;49.990;8.028;2023-12-20T02:44:24;6.50;99.90
23010;DHT22;11671;49.990;8.028;2023-12-20T02:46:50;6.60;99.90
23010;DHT22;11671;49.990;8.028;2023-12-20T02:49:15;6.70;99.90
23010;DHT22;11671;49.990;8.028;2023-12-20T02:51:41;6.80;99.90
23010;DHT22;11671;49.990;8.028;2023-12-20T02:54:06;6.90;99.90
23010;DHT22;11671;49.990;8.028;2023-12-20T02:56:32;7.00;99.90
23010;DHT22;11671;49.990;8.028;2023-12-20T02:58:57;7.00;99.90
23010;DHT22;11671;49.990;8.028;2023-12-20T03:01:23;7.00;99.90
23010;DHT22;11671;49.990;8.028;2023-12-20T03:03:48;7.00;99.90
23010;DHT22;11671;49.990;8.028;2023-12-20T03:06:17;7.00;99.90
23010;DHT22;11671;49.990;8.028;2023-12-20T03:08:44;7.00;99.90
23010;DHT22;11671;49.990;8.028;2023-12-20T03:11:09;6.90;99.90
23010;DHT22;11671;49.990;8.028;2023-12-20T03:13:34;6.80;99.90
23010;DHT22;11671;49.990;8.028;2023-12-20T03:16:00;6.80;99.90
23010;DHT22;11671;49.990;8.028;2023-12-20T03:18:25;6.80;99.90
23010;DHT22;11671;49.990;8.028;2023-12-20T03:20:53;6.80;99.90
23010;DHT22;11671;49.990;8.028;2023-12-20T03:23:18;6.80;99.90
23010;DHT22;11671;49.990;8.028;2023-12-20T03:25:44;6.90;99.90
23010;DHT22;11671;49.990;8.028;2023-12-20T03:28:09;6.90;99.90
23010;DHT22;11671;49.990;8.028;2023-12-20T03:30:35;6.80;99.90
23010;DHT22;11671;49.990;8.028;2023-12-20T03:33:00;6.90;99.90
23010;DHT22;11671;49.990;8.028;2023-12-20T03:35:26;6.90;99.90
23010;DHT22;11671;49.990;8.028;2023-12-20T03:37:51;6.90;99.90
23010;DHT22;11671;49.990;8.028;2023-12-20T03:40:17;6.90;99.90
23010;DHT22;11671;49.990;8.028;2023-12-20T03:42:43;6.90;99.90
23010;DHT22;11671;49.990;8.028;2023-12-20T03:45:09;6.90;99.90
23010;DHT22;11671;49.990;8.028;2023-12-20T03:47:34;6.90;99.90
23010;DHT22;11671;49.990;8.028;2023-12-20T03:50:00;7.00;99.90
23010;DHT22;11671;49.990;8.028;2023-12-20T03:52:25;7.00;99.90
23010;DHT22;11671;49.990;8.028;2023-12-20T03:54:51;7.10;99.90
23010;DHT22;11671;49.990;8.028;2023-12-20T03:57:16;7.10;99.90
23010;DHT22;11671;49.990;8.028;2023-12-20T03:59:42;7.20;99.90
23010;DHT22;11671;49.990;8.028;2023-12-20T04:02:07;7.10;99.90
23010;DHT22;11671;49.990;8.028;2023-12-20T04:04:33;7.00;99.90
23010;DHT22;11671;49.990;8.028;2023-12-20T04:06:58;7.00;99.90
23010;DHT22;11671;49.990;8.028;2023-12-20T04:09:23;6.80;99.90
23010;DHT22;11671;49.990;8.028;2023-12-20T04:11:49;6.70;99.90
23010;DHT22;11671;49.990;8.028;2023-12-20T04:14:14;6.60;99.90
23010;DHT22;11671;49.990;8.028;2023-12-20T04:16:40;6.60;99.90
23010;DHT22;11671;49.990;8.028;2023-12-20T04:19:05;6.60;99.90
23010;DHT22;11671;49.990;8.028;2023-12-20T04:21:31;6.60;99.90
23010;DHT22;11671;49.990;8.028;2023-12-20T04:23:56;6.60;99.90
23010;DHT22;11671;49.990;8.028;2023-12-20T04:26:22;6.60;99.90
23010;DHT22;11671;49.990;8.028;2023-12-20T04:28:48;6.70;99.90
23010;DHT22;11671;49.990;8.028;2023-12-20T04:31:13;6.70;99.90
23010;DHT22;11671;49.990;8.028;2023-12-20T04:33:39;6.80;99.90
23010;DHT22;11671;49.990;8.028;2023-12-20T04:36:04;7.00;99.90
23010;DHT22;11671;49.990;8.028;2023-12-20T04:38:30;7.10;99.90
23010;DHT22;11671;49.990;8.028;2023-12-20T04:40:55;7.10;99.90
23010;DHT22;11671;49.990;8.028;2023-12-20T04:43:21;7.20;99.90
23010;DHT22;11671;49.990;8.028;2023-12-20T04:45:46;7.10;99.90
23010;DHT22;11671;49.990;8.028;2023-12-20T04:48:12;7.10;99.90
23010;DHT22;11671;49.990;8.028;2023-12-20T04:50:37;7.10;99.90
23010;DHT22;11671;49.990;8.028;2023-12-20T04:53:03;7.00;99.90
23010;DHT22;11671;49.990;8.028;2023-12-20T04:55:29;7.00;99.90
23010;DHT22;11671;49.990;8.028;2023-12-20T04:57:55;6.90;99.90
23010;DHT22;11671;49.990;8.028;2023-12-20T05:00:21;6.90;99.90
23010;DHT22;11671;49.990;8.028;2023-12-20T05:02:47;6.80;99.90
23010;DHT22;11671;49.990;8.028;2023-12-20T05:05:12;6.80;99.90
23010;DHT22;11671;49.990;8.028;2023-12-20T05:07:40;6.70;99.90
23010;DHT22;11671;49.990;8.028;2023-12-20T05:10:06;6.70;99.90
23010;DHT22;11671;49.990;8.028;2023-12-20T05:12:33;6.70;99.90
23010;DHT22;11671;49.990;8.028;2023-12-20T05:14:59;6.70;99.90
23010;DHT22;11671;49.990;8.028;2023-12-20T05:17:24;6.80;99.90
23010;DHT22;11671;49.990;8.028;2023-12-20T05:19:50;6.80;99.90
23010;DHT22;11671;49.990;8.028;2023-12-20T05:22:15;6.80;99.90
23010;DHT22;11671;49.990;8.028;2023-12-20T05:24:41;6.80;99.90
23010;DHT22;11671;49.990;8.028;2023-12-20T05:27:07;6.90;99.90
23010;DHT22;11671;49.990;8.028;2023-12-20T05:29:32;6.90;99.90
23010;DHT22;11671;49.990;8.028;2023-12-20T05:31:58;6.90;99.90
23010;DHT22;11671;49.990;8.028;2023-12-20T05:34:23;6.90;99.90
23010;DHT22;11671;49.990;8.028;2023-12-20T05:36:49;7.00;99.90
23010;DHT22;11671;49.990;8.028;2023-12-20T05:39:14;6.90;99.90
23010;DHT22;11671;49.990;8.028;2023-12-20T05:41:40;6.90;99.90
23010;DHT22;11671;49.990;8.028;2023-12-20T05:44:05;6.80;99.90
23010;DHT22;11671;49.990;8.028;2023-12-20T05:46:31;6.70;99.90
23010;DHT22;11671;49.990;8.028;2023-12-20T05:48:56;6.50;99.90
23010;DHT22;11671;49.990;8.028;2023-12-20T05:51:22;6.40;99.90
23010;DHT22;11671;49.990;8.028;2023-12-20T05:53:47;6.30;99.90
23010;DHT22;11671;49.990;8.028;2023-12-20T05:56:15;6.20;99.90
23010;DHT22;11671;49.990;8.028;2023-12-20T05:58:40;6.20;99.90
23010;DHT22;11671;49.990;8.028;2023-12-20T06:01:06;6.00;99.90
23010;DHT22;11671;49.990;8.028;2023-12-20T06:03:33;6.00;99.90
23010;DHT22;11671;49.990;8.028;2023-12-20T06:05:59;6.00;99.90
23010;DHT22;11671;49.990;8.028;2023-12-20T06:08:26;6.00;99.90
23010;DHT22;11671;49.990;8.028;2023-12-20T06:10:51;5.70;99.90
23010;DHT22;11671;49.990;8.028;2023-12-20T06:13:17;5.80;99.90
23010;DHT22;11671;49.990;8.028;2023-12-20T06:15:44;5.70;99.90
23010;DHT22;11671;49.990;8.028;2023-12-20T06:18:10;5.60;99.90
23010;DHT22;11671;49.990;8.028;2023-12-20T06:20:35;5.60;99.90
23010;DHT22;11671;49.990;8.028;2023-12-20T06:23:01;5.60;99.90
23010;DHT22;11671;49.990;8.028;2023-12-20T06:25:26;5.50;99.90
23010;DHT22;11671;49.990;8.028;2023-12-20T06:27:52;5.60;99.90
23010;DHT22;11671;49.990;8.028;2023-12-20T06:32:43;5.40;99.90
23010;DHT22;11671;49.990;8.028;2023-12-20T06:35:09;5.40;99.90
23010;DHT22;11671;49.990;8.028;2023-12-20T06:37:34;5.40;99.90
23010;DHT22;11671;49.990;8.028;2023-12-20T06:40:00;5.40;99.90
23010;DHT22;11671;49.990;8.028;2023-12-20T06:42:25;5.40;99.90
23010;DHT22;11671;49.990;8.028;2023-12-20T06:44:51;5.30;99.90
23010;DHT22;11671;49.990;8.028;2023-12-20T06:47:16;5.30;99.90
23010;DHT22;11671;49.990;8.028;2023-12-20T06:49:42;5.30;99.90
23010;DHT22;11671;49.990;8.028;2023-12-20T06:52:07;5.30;99.90
23010;DHT22;11671;49.990;8.028;2023-12-20T06:54:33;5.30;99.90
23010;DHT22;11671;49.990;8.028;2023-12-20T06:56:59;5.30;99.90
23010;DHT22;11671;49.990;8.028;2023-12-20T06:59:25;5.30;99.90
23010;DHT22;11671;49.990;8.028;2023-12-20T07:01:51;5.20;99.90
23010;DHT22;11671;49.990;8.028;2023-12-20T07:04:16;5.30;99.90
23010;DHT22;11671;49.990;8.028;2023-12-20T07:06:46;5.30;99.90
23010;DHT22;11671;49.990;8.028;2023-12-20T07:09:11;5.50;99.90
23010;DHT22;11671;49.990;8.028;2023-12-20T07:11:38;5.50;99.90
23010;DHT22;11671;49.990;8.028;2023-12-20T07:14:04;5.60;99.90
23010;DHT22;11671;49.990;8.028;2023-12-20T07:16:29;5.70;99.90
23010;DHT22;11671;49.990;8.028;2023-12-20T07:18:55;5.80;99.90
23010;DHT22;11671;49.990;8.028;2023-12-20T07:21:21;5.70;99.90
23010;DHT22;11671;49.990;8.028;2023-12-20T07:23:47;5.80;99.90
23010;DHT22;11671;49.990;8.028;2023-12-20T07:26:13;5.80;99.90
23010;DHT22;11671;49.990;8.028;2023-12-20T07:28:38;5.70;99.90
23010;DHT22;11671;49.990;8.028;2023-12-20T07:31:04;6.20;99.90
23010;DHT22;11671;49.990;8.028;2023-12-20T07:33:29;6.60;99.90
23010;DHT22;11671;49.990;8.028;2023-12-20T07:35:55;6.60;99.90
23010;DHT22;11671;49.990;8.028;2023-12-20T07:38:20;6.60;99.90
23010;DHT22;11671;49.990;8.028;2023-12-20T07:40:46;6.40;99.90
23010;DHT22;11671;49.990;8.028;2023-12-20T07:43:11;6.40;99.90
23010;DHT22;11671;49.990;8.028;2023-12-20T07:45:37;6.30;99.90
23010;DHT22;11671;49.990;8.028;2023-12-20T07:48:03;6.10;99.90
23010;DHT22;11671;49.990;8.028;2023-12-20T07:50:29;6.00;99.90
23010;DHT22;11671;49.990;8.028;2023-12-20T07:52:54;6.00;99.90
23010;DHT22;11671;49.990;8.028;2023-12-20T07:55:20;6.20;99.90
23010;DHT22;11671;49.990;8.028;2023-12-20T07:57:45;6.20;99.90
23010;DHT22;11671;49.990;8.028;2023-12-20T08:00:11;6.20;99.90
23010;DHT22;11671;49.990;8.028;2023-12-20T08:02:37;6.30;99.90
23010;DHT22;11671;49.990;8.028;2023-12-20T08:05:03;6.40;99.90
23010;DHT22;11671;49.990;8.028;2023-12-20T08:07:29;6.50;99.90
23010;DHT22;11671;49.990;8.028;2023-12-20T08:09:54;6.50;99.90
23010;DHT22;11671;49.990;8.028;2023-12-20T08:12:21;6.90;99.90
23010;DHT22;11671;49.990;8.028;2023-12-20T08:14:47;7.30;99.90
23010;DHT22;11671;49.990;8.028;2023-12-20T08:17:13;7.40;99.90
23010;DHT22;11671;49.990;8.028;2023-12-20T08:19:41;7.40;99.90
23010;DHT22;11671;49.990;8.028;2023-12-20T08:22:07;7.90;99.90
23010;DHT22;11671;49.990;8.028;2023-12-20T08:24:32;8.00;99.90
23010;DHT22;11671;49.990;8.028;2023-12-20T08:26:58;8.00;99.90
23010;DHT22;11671;49.990;8.028;2023-12-20T08:29:23;7.90;99.90
23010;DHT22;11671;49.990;8.028;2023-12-20T08:31:52;7.80;99.90
23010;DHT22;11671;49.990;8.028;2023-12-20T08:34:18;7.70;99.90
23010;DHT22;11671;49.990;8.028;2023-12-20T08:36:43;7.50;99.90
23010;DHT22;11671;49.990;8.028;2023-12-20T08:39:09;7.40;99.90
23010;DHT22;11671;49.990;8.028;2023-12-20T08:41:34;7.40;99.90
23010;DHT22;11671;49.990;8.028;2023-12-20T08:44:00;7.20;99.90
23010;DHT22;11671;49.990;8.028;2023-12-20T08:46:25;7.20;99.90
23010;DHT22;11671;49.990;8.028;2023-12-20T08:48:51;7.20;99.90
23010;DHT22;11671;49.990;8.028;2023-12-20T08:51:16;7.30;99.90
23010;DHT22;11671;49.990;8.028;2023-12-20T08:53:42;7.30;99.90
23010;DHT22;11671;49.990;8.028;2023-12-20T08:56:10;7.40;99.90
23010;DHT22;11671;49.990;8.028;2023-12-20T08:58:35;7.40;99.90
23010;DHT22;11671;49.990;8.028;2023-12-20T09:01:01;7.30;99.90
23010;DHT22;11671;49.990;8.028;2023-12-20T09:03:26;7.30;99.90
23010;DHT22;11671;49.990;8.028;2023-12-20T09:05:52;7.30;99.90
23010;DHT22;11671;49.990;8.028;2023-12-20T09:08:17;7.30;99.90
23010;DHT22;11671;49.990;8.028;2023-12-20T09:10:43;7.40;99.90
23010;DHT22;11671;49.990;8.028;2023-12-20T09:13:09;7.40;99.90
23010;DHT22;11671;49.990;8.028;2023-12-20T09:15:35;7.50;99.90
23010;DHT22;11671;49.990;8.028;2023-12-20T09:18:01;7.50;99.90
23010;DHT22;11671;49.990;8.028;2023-12-20T09:20:26;7.60;99.90
23010;DHT22;11671;49.990;8.028;2023-12-20T09:22:52;7.70;99.90
23010;DHT22;11671;49.990;8.028;2023-12-20T09:25:18;7.70;99.90
23010;DHT22;11671;49.990;8.028;2023-12-20T09:27:43;7.80;99.90
23010;DHT22;11671;49.990;8.028;2023-12-20T09:30:09;7.80;99.90
23010;DHT22;11671;49.990;8.028;2023-12-20T09:32:35;7.90;99.90
23010;DHT22;11671;49.990;8.028;2023-12-20T09:35:00;7.90;99.90
23010;DHT22;11671;49.990;8.028;2023-12-20T09:37:26;8.00;99.90
23010;DHT22;11671;49.990;8.028;2023-12-20T09:39:52;8.00;99.90
23010;DHT22;11671;49.990;8.028;2023-12-20T09:42:23;8.10;99.90
23010;DHT22;11671;49.990;8.028;2023-12-20T09:44:50;8.00;99.90
23010;DHT22;11671;49.990;8.028;2023-12-20T09:47:15;8.10;99.90
23010;DHT22;11671;49.990;8.028;2023-12-20T09:49:41;8.20;99.90
23010;DHT22;11671;49.990;8.028;2023-12-20T09:52:07;8.20;99.90
23010;DHT22;11671;49.990;8.028;2023-12-20T09:54:34;8.20;99.90
23010;DHT22;11671;49.990;8.028;2023-12-20T09:57:00;8.20;99.90
23010;DHT22;11671;49.990;8.028;2023-12-20T09:59:25;8.30;99.90
23010;DHT22;11671;49.990;8.028;2023-12-20T10:01:51;8.30;99.90
23010;DHT22;11671;49.990;8.028;2023-12-20T10:04:18;8.40;99.90
23010;DHT22;11671;49.990;8.028;2023-12-20T10:06:43;8.30;99.90
23010;DHT22;11671;49.990;8.028;2023-12-20T10:09:11;8.40;99.90
23010;DHT22;11671;49.990;8.028;2023-12-20T10:11:36;8.50;99.90
23010;DHT22;11671;49.990;8.028;2023-12-20T10:14:08;8.60;99.90
23010;DHT22;11671;49.990;8.028;2023-12-20T10:16:33;8.60;99.90
23010;DHT22;11671;49.990;8.028;2023-12-20T10:18:59;8.80;99.90
23010;DHT22;11671;49.990;8.028;2023-12-20T10:21:26;8.90;99.90
23010;DHT22;11671;49.990;8.028;2023-12-20T10:23:52;8.90;99.90
23010;DHT22;11671;49.990;8.028;2023-12-20T10:26:21;9.10;99.90
23010;DHT22;11671;49.990;8.028;2023-12-20T10:28:49;9.20;99.90
23010;DHT22;11671;49.990;8.028;2023-12-20T10:31:33;9.20;99.90
23010;DHT22;11671;49.990;8.028;2023-12-20T10:33:59;9.30;99.90
23010;DHT22;11671;49.990;8.028;2023-12-20T10:36:25;9.30;99.90
23010;DHT22;11671;49.990;8.028;2023-12-20T10:38:52;9.20;99.90
23010;DHT22;11671;49.990;8.028;2023-12-20T10:41:24;9.20;99.90
23010;DHT22;11671;49.990;8.028;2023-12-20T10:43:51;9.20;99.90
23010;DHT22;11671;49.990;8.028;2023-12-20T10:46:17;9.20;99.90
23010;DHT22;11671;49.990;8.028;2023-12-20T10:48:44;9.20;99.90
23010;DHT22;11671;49.990;8.028;2023-12-20T10:51:10;9.10;99.90
23010;DHT22;11671;49.990;8.028;2023-12-20T10:53:36;9.00;99.90
23010;DHT22;11671;49.990;8.028;2023-12-20T10:56:02;9.10;99.90
23010;DHT22;11671;49.990;8.028;2023-12-20T10:58:28;9.10;99.90
23010;DHT22;11671;49.990;8.028;2023-12-20T11:00:57;9.20;99.90
23010;DHT22;11671;49.990;8.028;2023-12-20T11:03:25;9.30;99.90
23010;DHT22;11671;49.990;8.028;2023-12-20T11:06:03;9.30;99.90
23010;DHT22;11671;49.990;8.028;2023-12-20T11:08:35;9.30;99.90
23010;DHT22;11671;49.990;8.028;2023-12-20T11:13:28;9.30;99.90
23010;DHT22;11671;49.990;8.028;2023-12-20T11:15:55;9.30;99.90
23010;DHT22;11671;49.990;8.028;2023-12-20T11:18:25;9.30;99.90
23010;DHT22;11671;49.990;8.028;2023-12-20T11:20:53;9.30;99.90
23010;DHT22;11671;49.990;8.028;2023-12-20T11:23:19;9.30;99.90
23010;DHT22;11671;49.990;8.028;2023-12-20T11:25:48;9.40;99.90
23010;DHT22;11671;49.990;8.028;2023-12-20T11:28:14;9.40;99.90
23010;DHT22;11671;49.990;8.028;2023-12-20T11:30:50;9.40;99.90
23010;DHT22;11671;49.990;8.028;2023-12-20T11:33:15;9.30;99.90
23010;DHT22;11671;49.990;8.028;2023-12-20T11:35:42;9.30;99.90
23010;DHT22;11671;49.990;8.028;2023-12-20T11:38:10;9.30;99.90
23010;DHT22;11671;49.990;8.028;2023-12-20T11:40:36;9.30;99.90
23010;DHT22;11671;49.990;8.028;2023-12-20T11:43:02;9.30;99.90
23010;DHT22;11671;49.990;8.028;2023-12-20T11:45:28;9.30;99.90
23010;DHT22;11671;49.990;8.028;2023-12-20T11:47:54;9.40;99.90
23010;DHT22;11671;49.990;8.028;2023-12-20T11:50:20;9.40;99.90
23010;DHT22;11671;49.990;8.028;2023-12-20T11:52:46;9.40;99.90
23010;DHT22;11671;49.990;8.028;2023-12-20T11:55:11;9.40;99.90
23010;DHT22;11671;49.990;8.028;2023-12-20T11:57:37;9.30;99.90
23010;DHT22;11671;49.990;8.028;2023-12-20T12:00:03;9.30;99.90
23010;DHT22;11671;49.990;8.028;2023-12-20T12:02:29;9.20;99.90
23010;DHT22;11671;49.990;8.028;2023-12-20T12:04:55;9.10;99.90
23010;DHT22;11671;49.990;8.028;2023-12-20T12:07:21;9.10;99.90
23010;DHT22;11671;49.990;8.028;2023-12-20T12:09:47;9.10;99.90
23010;DHT22;11671;49.990;8.028;2023-12-20T12:12:13;9.00;99.90
23010;DHT22;11671;49.990;8.028;2023-12-20T12:14:38;9.00;99.90
23010;DHT22;11671;49.990;8.028;2023-12-20T12:17:11;9.00;99.90
23010;DHT22;11671;49.990;8.028;2023-12-20T12:19:38;9.00;99.90
23010;DHT22;11671;49.990;8.028;2023-12-20T12:22:07;9.10;99.90
23010;DHT22;11671;49.990;8.028;2023-12-20T12:24:33;9.20;99.90
23010;DHT22;11671;49.990;8.028;2023-12-20T12:26:59;9.30;99.90
23010;DHT22;11671;49.990;8.028;2023-12-20T12:29:24;9.40;99.90
23010;DHT22;11671;49.990;8.028;2023-12-20T12:31:50;9.60;99.90
23010;DHT22;11671;49.990;8.028;2023-12-20T12:34:16;9.60;99.90
23010;DHT22;11671;49.990;8.028;2023-12-20T12:36:43;9.60;99.90
23010;DHT22;11671;49.990;8.028;2023-12-20T12:39:08;9.60;99.90
23010;DHT22;11671;49.990;8.028;2023-12-20T12:41:35;9.60;99.90
23010;DHT22;11671;49.990;8.028;2023-12-20T12:44:00;9.60;99.90
23010;DHT22;11671;49.990;8.028;2023-12-20T12:46:26;9.60;99.90
23010;DHT22;11671;49.990;8.028;2023-12-20T12:48:51;9.50;99.90
23010;DHT22;11671;49.990;8.028;2023-12-20T12:51:16;9.50;99.90
23010;DHT22;11671;49.990;8.028;2023-12-20T12:53:42;9.50;99.90
23010;DHT22;11671;49.990;8.028;2023-12-20T12:56:07;9.40;99.90
23010;DHT22;11671;49.990;8.028;2023-12-20T12:58:33;9.50;99.90
23010;DHT22;11671;49.990;8.028;2023-12-20T13:00:59;9.80;99.90
23010;DHT22;11671;49.990;8.028;2023-12-20T13:03:24;10.00;99.90
23010;DHT22;11671;49.990;8.028;2023-12-20T13:05:50;10.20;99.90
23010;DHT22;11671;49.990;8.028;2023-12-20T13:08:15;10.40;99.90
23010;DHT22;11671;49.990;8.028;2023-12-20T13:10:41;10.40;99.90
23010;DHT22;11671;49.990;8.028;2023-12-20T13:13:06;10.20;99.90
23010;DHT22;11671;49.990;8.028;2023-12-20T13:15:32;10.10;99.90
23010;DHT22;11671;49.990;8.028;2023-12-20T13:17:57;10.20;99.90
23010;DHT22;11671;49.990;8.028;2023-12-20T13:20:23;10.30;99.90
23010;DHT22;11671;49.990;8.028;2023-12-20T13:22:48;10.30;99.90
23010;DHT22;11671;49.990;8.028;2023-12-20T13:25:14;10.20;99.90
23010;DHT22;11671;49.990;8.028;2023-12-20T13:27:39;10.20;99.90
23010;DHT22;11671;49.990;8.028;2023-12-20T13:30:06;10.10;99.90
23010;DHT22;11671;49.990;8.028;2023-12-20T13:32:32;10.10;99.90
23010;DHT22;11671;49.990;8.028;2023-12-20T13:34:58;10.00;99.90
23010;DHT22;11671;49.990;8.028;2023-12-20T13:37:23;10.00;99.90
23010;DHT22;11671;49.990;8.028;2023-12-20T13:39:49;10.00;99.90
23010;DHT22;11671;49.990;8.028;2023-12-20T13:42:14;10.00;99.90
23010;DHT22;11671;49.990;8.028;2023-12-20T13:44:40;10.10;99.90
23010;DHT22;11671;49.990;8.028;2023-12-20T13:47:05;10.10;99.90
23010;DHT22;11671;49.990;8.028;2023-12-20T13:49:31;10.10;99.90
23010;DHT22;11671;49.990;8.028;2023-12-20T13:51:57;10.10;99.90
23010;DHT22;11671;49.990;8.028;2023-12-20T13:54:23;10.10;99.90
23010;DHT22;11671;49.990;8.028;2023-12-20T13:56:48;10.10;99.90
23010;DHT22;11671;49.990;8.028;2023-12-20T13:59:14;10.00;99.90
23010;DHT22;11671;49.990;8.028;2023-12-20T14:01:40;9.90;99.90
23010;DHT22;11671;49.990;8.028;2023-12-20T14:04:06;9.80;99.90
23010;DHT22;11671;49.990;8.028;2023-12-20T14:06:32;9.70;99.90
23010;DHT22;11671;49.990;8.028;2023-12-20T14:08:58;9.70;99.90
23010;DHT22;11671;49.990;8.028;2023-12-20T14:11:25;9.60;99.90
23010;DHT22;11671;49.990;8.028;2023-12-20T14:13:51;9.60;99.90
23010;DHT22;11671;49.990;8.028;2023-12-20T14:16:16;9.60;99.90
23010;DHT22;11671;49.990;8.028;2023-12-20T14:18:42;9.60;99.90
23010;DHT22;11671;49.990;8.028;2023-12-20T14:21:07;9.60;99.90
23010;DHT22;11671;49.990;8.028;2023-12-20T14:23:33;9.60;99.90
23010;DHT22;11671;49.990;8.028;2023-12-20T14:26:01;9.60;99.90
23010;DHT22;11671;49.990;8.028;2023-12-20T14:28:27;9.60;99.90
23010;DHT22;11671;49.990;8.028;2023-12-20T14:30:53;9.70;99.90
23010;DHT22;11671;49.990;8.028;2023-12-20T14:33:18;9.70;99.90
23010;DHT22;11671;49.990;8.028;2023-12-20T14:35:46;9.60;99.90
23010;DHT22;11671;49.990;8.028;2023-12-20T14:38:12;9.50;99.90
23010;DHT22;11671;49.990;8.028;2023-12-20T14:40:40;9.40;99.90
23010;DHT22;11671;49.990;8.028;2023-12-20T14:43:06;9.30;99.90
23010;DHT22;11671;49.990;8.028;2023-12-20T14:45:31;9.30;99.90
23010;DHT22;11671;49.990;8.028;2023-12-20T14:47:57;9.20;99.90
23010;DHT22;11671;49.990;8.028;2023-12-20T14:50:24;9.20;99.90
23010;DHT22;11671;49.990;8.028;2023-12-20T14:52:49;9.30;99.90
23010;DHT22;11671;49.990;8.028;2023-12-20T14:55:15;9.30;99.90
23010;DHT22;11671;49.990;8.028;2023-12-20T14:57:41;9.30;99.90
23010;DHT22;11671;49.990;8.028;2023-12-20T15:00:06;9.20;99.90
23010;DHT22;11671;49.990;8.028;2023-12-20T15:02:32;9.20;99.90
23010;DHT22;11671;49.990;8.028;2023-12-20T15:04:57;9.10;99.90
23010;DHT22;11671;49.990;8.028;2023-12-20T15:07:23;9.10;99.90
23010;DHT22;11671;49.990;8.028;2023-12-20T15:09:48;9.20;99.90
23010;DHT22;11671;49.990;8.028;2023-12-20T15:12:14;9.10;99.90
23010;DHT22;11671;49.990;8.028;2023-12-20T15:14:40;9.10;99.90
23010;DHT22;11671;49.990;8.028;2023-12-20T15:17:05;9.10;99.90
23010;DHT22;11671;49.990;8.028;2023-12-20T15:19:31;9.20;99.90
23010;DHT22;11671;49.990;8.028;2023-12-20T15:21:56;9.20;99.90
23010;DHT22;11671;49.990;8.028;2023-12-20T15:24:24;9.10;99.90
23010;DHT22;11671;49.990;8.028;2023-12-20T15:26:54;9.10;99.90
23010;DHT22;11671;49.990;8.028;2023-12-20T15:29:19;9.10;99.90
23010;DHT22;11671;49.990;8.028;2023-12-20T15:31:46;9.10;99.90
23010;DHT22;11671;49.990;8.028;2023-12-20T15:34:11;9.10;99.90
23010;DHT22;11671;49.990;8.028;2023-12-20T15:36:37;9.20;99.90
23010;DHT22;11671;49.990;8.028;2023-12-20T15:39:04;9.20;99.90
23010;DHT22;11671;49.990;8.028;2023-12-20T15:41:29;9.20;99.90